sensor_id;sensor_type;location;lat;lon;timestamp;pressure;altitude;pressure_sealevel;temperature
18713;BMP280;9485;49.386;8.674;2023-05-10T00:03:25;99773.44;;;17.03
18713;BMP280;9485;49.386;8.674;2023-05-10T00:08:46;99788.81;;;17.00
18713;BMP280;9485;49.386;8.674;2023-05-10T00:14:07;99782.25;;;16.92
18713;BMP280;9485;49.386;8.674;2023-05-10T00:19:28;99779.19;;;16.90
18713;BMP280;9485;49.386;8.674;2023-05-10T00:24:49;99789.63;;;16.87
18713;BMP280;9485;49.386;8.674;2023-05-10T00:30:11;99779.88;;;16.83
18713;BMP280;9485;49.386;8.674;2023-05-10T00:35:31;99779.66;;;16.81
18713;BMP280;9485;49.386;8.674;2023-05-10T00:40:52;99778.47;;;16.76
18713;BMP280;9485;49.386;8.674;2023-05-10T00:46:21;99779.94;;;16.70
18713;BMP280;9485;49.386;8.674;2023-05-10T00:51:42;99790.78;;;16.71
18713;BMP280;9485;49.386;8.674;2023-05-10T00:57:04;99793.22;;;16.67
18713;BMP280;9485;49.386;8.674;2023-05-10T01:02:26;99787.94;;;16.71
18713;BMP280;9485;49.386;8.674;2023-05-10T01:07:47;99782.78;;;16.70
18713;BMP280;9485;49.386;8.674;2023-05-10T01:13:07;99798.56;;;16.71
18713;BMP280;9485;49.386;8.674;2023-05-10T01:18:33;99791.56;;;16.72
18713;BMP280;9485;49.386;8.674;2023-05-10T01:31:02;99800.44;;;16.68
18713;BMP280;9485;49.386;8.674;2023-05-10T01:36:40;99803.31;;;16.68
18713;BMP280;9485;49.386;8.674;2023-05-10T01:42:08;99795.44;;;16.61
18713;BMP280;9485;49.386;8.674;2023-05-10T01:47:41;99807.34;;;16.60
18713;BMP280;9485;49.386;8.674;2023-05-10T01:53:08;99816.69;;;16.60
18713;BMP280;9485;49.386;8.674;2023-05-10T01:58:32;99819.75;;;16.62
18713;BMP280;9485;49.386;8.674;2023-05-10T02:03:56;99815.22;;;16.67
18713;BMP280;9485;49.386;8.674;2023-05-10T02:09:21;99813.91;;;16.68
18713;BMP280;9485;49.386;8.674;2023-05-10T02:14:45;99819.63;;;16.68
18713;BMP280;9485;49.386;8.674;2023-05-10T02:20:08;99832.91;;;16.65
18713;BMP280;9485;49.386;8.674;2023-05-10T02:25:32;99828.09;;;16.60
18713;BMP280;9485;49.386;8.674;2023-05-10T02:30:54;99841.03;;;16.61
18713;BMP280;9485;49.386;8.674;2023-05-10T02:36:16;99828.31;;;16.50
18713;BMP280;9485;49.386;8.674;2023-05-10T02:41:40;99844.31;;;16.65
18713;BMP280;9485;49.386;8.674;2023-05-10T02:47:01;99837.06;;;16.64
18713;BMP280;9485;49.386;8.674;2023-05-10T02:52:28;99836.41;;;16.58
18713;BMP280;9485;49.386;8.674;2023-05-10T02:57:59;99835.91;;;16.47
18713;BMP280;9485;49.386;8.674;2023-05-10T03:03:20;99851.25;;;16.44
18713;BMP280;9485;49.386;8.674;2023-05-10T03:08:43;99847.63;;;16.44
18713;BMP280;9485;49.386;8.674;2023-05-10T03:14:25;99837.88;;;16.39
18713;BMP280;9485;49.386;8.674;2023-05-10T03:19:56;99840.72;;;16.39
18713;BMP280;9485;49.386;8.674;2023-05-10T03:25:20;99837.44;;;16.35
18713;BMP280;9485;49.386;8.674;2023-05-10T03:30:44;99849.19;;;16.32
18713;BMP280;9485;49.386;8.674;2023-05-10T03:36:07;99850.72;;;16.33
18713;BMP280;9485;49.386;8.674;2023-05-10T03:41:27;99864.63;;;16.36
18713;BMP280;9485;49.386;8.674;2023-05-10T03:46:49;99870.00;;;16.40
18713;BMP280;9485;49.386;8.674;2023-05-10T03:52:10;99872.06;;;16.39
18713;BMP280;9485;49.386;8.674;2023-05-10T03:57:31;99865.72;;;16.33
18713;BMP280;9485;49.386;8.674;2023-05-10T04:02:54;99870.88;;;16.35
18713;BMP280;9485;49.386;8.674;2023-05-10T04:08:16;99871.19;;;16.31
18713;BMP280;9485;49.386;8.674;2023-05-10T04:13:37;99879.53;;;16.29
18713;BMP280;9485;49.386;8.674;2023-05-10T04:18:59;99888.91;;;16.24
18713;BMP280;9485;49.386;8.674;2023-05-10T04:24:20;99895.50;;;16.19
18713;BMP280;9485;49.386;8.674;2023-05-10T04:29:40;99900.97;;;16.17
18713;BMP280;9485;49.386;8.674;2023-05-10T04:35:02;99901.53;;;16.16
18713;BMP280;9485;49.386;8.674;2023-05-10T04:40:24;99893.84;;;16.11
18713;BMP280;9485;49.386;8.674;2023-05-10T04:45:44;99903.06;;;16.17
18713;BMP280;9485;49.386;8.674;2023-05-10T04:51:06;99910.28;;;16.18
18713;BMP280;9485;49.386;8.674;2023-05-10T04:56:27;99899.13;;;16.20
18713;BMP280;9485;49.386;8.674;2023-05-10T05:01:47;99905.03;;;16.22
18713;BMP280;9485;49.386;8.674;2023-05-10T05:07:09;99905.03;;;16.22
18713;BMP280;9485;49.386;8.674;2023-05-10T05:12:30;99916.56;;;16.29
18713;BMP280;9485;49.386;8.674;2023-05-10T05:17:51;99902.34;;;16.29
18713;BMP280;9485;49.386;8.674;2023-05-10T05:23:13;99912.50;;;16.38
18713;BMP280;9485;49.386;8.674;2023-05-10T05:28:34;99916.81;;;16.44
18713;BMP280;9485;49.386;8.674;2023-05-10T05:33:56;99927.09;;;16.47
18713;BMP280;9485;49.386;8.674;2023-05-10T05:39:18;99928.53;;;16.54
18713;BMP280;9485;49.386;8.674;2023-05-10T05:44:40;99928.94;;;16.57
18713;BMP280;9485;49.386;8.674;2023-05-10T05:50:01;99933.22;;;16.64
18713;BMP280;9485;49.386;8.674;2023-05-10T05:55:23;99938.47;;;16.73
18713;BMP280;9485;49.386;8.674;2023-05-10T06:00:45;99942.41;;;16.83
18713;BMP280;9485;49.386;8.674;2023-05-10T06:06:10;99943.38;;;16.85
18713;BMP280;9485;49.386;8.674;2023-05-10T06:11:33;99958.63;;;16.88
18713;BMP280;9485;49.386;8.674;2023-05-10T06:16:54;99962.69;;;16.92
18713;BMP280;9485;49.386;8.674;2023-05-10T06:22:15;99967.06;;;16.93
18713;BMP280;9485;49.386;8.674;2023-05-10T06:27:38;99983.28;;;16.98
18713;BMP280;9485;49.386;8.674;2023-05-10T06:32:59;99982.41;;;17.03
18713;BMP280;9485;49.386;8.674;2023-05-10T06:38:19;99984.78;;;17.12
18713;BMP280;9485;49.386;8.674;2023-05-10T06:43:42;99981.91;;;17.25
18713;BMP280;9485;49.386;8.674;2023-05-10T06:49:02;99989.72;;;17.37
18713;BMP280;9485;49.386;8.674;2023-05-10T06:54:24;99993.97;;;17.44
18713;BMP280;9485;49.386;8.674;2023-05-10T06:59:46;99995.03;;;17.54
18713;BMP280;9485;49.386;8.674;2023-05-10T07:05:08;100001.94;;;17.58
18713;BMP280;9485;49.386;8.674;2023-05-10T07:10:29;99997.41;;;17.63
18713;BMP280;9485;49.386;8.674;2023-05-10T07:15:51;100006.72;;;17.63
18713;BMP280;9485;49.386;8.674;2023-05-10T07:21:12;100006.31;;;17.59
18713;BMP280;9485;49.386;8.674;2023-05-10T07:26:33;100003.75;;;17.48
18713;BMP280;9485;49.386;8.674;2023-05-10T07:31:55;100010.53;;;17.45
18713;BMP280;9485;49.386;8.674;2023-05-10T07:37:16;100004.91;;;17.53
18713;BMP280;9485;49.386;8.674;2023-05-10T07:42:36;100001.59;;;17.62
18713;BMP280;9485;49.386;8.674;2023-05-10T07:47:58;100010.53;;;17.79
18713;BMP280;9485;49.386;8.674;2023-05-10T07:53:19;100006.72;;;17.97
18713;BMP280;9485;49.386;8.674;2023-05-10T07:58:40;100015.63;;;18.13
18713;BMP280;9485;49.386;8.674;2023-05-10T08:04:02;100020.59;;;18.33
18713;BMP280;9485;49.386;8.674;2023-05-10T08:09:22;100018.13;;;18.58
18713;BMP280;9485;49.386;8.674;2023-05-10T08:14:43;100019.59;;;18.79
18713;BMP280;9485;49.386;8.674;2023-05-10T08:20:06;100028.16;;;19.07
18713;BMP280;9485;49.386;8.674;2023-05-10T08:25:27;100023.19;;;19.35
18713;BMP280;9485;49.386;8.674;2023-05-10T08:30:50;100019.13;;;19.81
18713;BMP280;9485;49.386;8.674;2023-05-10T08:36:12;100031.81;;;20.23
18713;BMP280;9485;49.386;8.674;2023-05-10T08:41:39;100044.66;;;20.44
18713;BMP280;9485;49.386;8.674;2023-05-10T08:47:05;100031.44;;;20.78
18713;BMP280;9485;49.386;8.674;2023-05-10T08:52:29;100043.97;;;21.27
18713;BMP280;9485;49.386;8.674;2023-05-10T08:57:50;100043.66;;;21.63
18713;BMP280;9485;49.386;8.674;2023-05-10T09:03:11;100045.38;;;21.66
18713;BMP280;9485;49.386;8.674;2023-05-10T09:08:36;100046.81;;;21.35
18713;BMP280;9485;49.386;8.674;2023-05-10T09:13:57;100054.75;;;21.05
18713;BMP280;9485;49.386;8.674;2023-05-10T09:19:19;100062.47;;;20.80
18713;BMP280;9485;49.386;8.674;2023-05-10T09:24:42;100061.06;;;20.43
18713;BMP280;9485;49.386;8.674;2023-05-10T09:30:06;100053.78;;;20.20
18713;BMP280;9485;49.386;8.674;2023-05-10T09:35:30;100061.25;;;20.08
18713;BMP280;9485;49.386;8.674;2023-05-10T09:40:53;100068.50;;;20.09
18713;BMP280;9485;49.386;8.674;2023-05-10T09:46:16;100063.94;;;20.21
18713;BMP280;9485;49.386;8.674;2023-05-10T09:51:36;100078.09;;;20.34
18713;BMP280;9485;49.386;8.674;2023-05-10T09:56:59;100068.16;;;20.42
18713;BMP280;9485;49.386;8.674;2023-05-10T10:02:20;100076.56;;;20.48
18713;BMP280;9485;49.386;8.674;2023-05-10T10:07:41;100080.00;;;20.69
18713;BMP280;9485;49.386;8.674;2023-05-10T10:13:04;100074.66;;;20.88
18713;BMP280;9485;49.386;8.674;2023-05-10T10:18:25;100079.06;;;21.04
18713;BMP280;9485;49.386;8.674;2023-05-10T10:23:48;100079.06;;;21.04
18713;BMP280;9485;49.386;8.674;2023-05-10T10:29:21;100086.91;;;20.96
18713;BMP280;9485;49.386;8.674;2023-05-10T10:34:44;100104.50;;;20.70
18713;BMP280;9485;49.386;8.674;2023-05-10T10:40:23;100112.53;;;20.41
18713;BMP280;9485;49.386;8.674;2023-05-10T10:46:11;100105.06;;;20.38
18713;BMP280;9485;49.386;8.674;2023-05-10T10:51:32;100106.78;;;20.56
18713;BMP280;9485;49.386;8.674;2023-05-10T10:57:11;100087.88;;;20.91
18713;BMP280;9485;49.386;8.674;2023-05-10T11:02:43;100091.56;;;21.60
18713;BMP280;9485;49.386;8.674;2023-05-10T11:08:26;100085.94;;;22.41
18713;BMP280;9485;49.386;8.674;2023-05-10T11:13:48;100091.84;;;23.16
18713;BMP280;9485;49.386;8.674;2023-05-10T11:19:12;100087.19;;;23.71
18713;BMP280;9485;49.386;8.674;2023-05-10T11:24:34;100084.75;;;23.67
18713;BMP280;9485;49.386;8.674;2023-05-10T11:29:55;100082.72;;;23.27
18713;BMP280;9485;49.386;8.674;2023-05-10T11:35:18;100092.53;;;23.24
18713;BMP280;9485;49.386;8.674;2023-05-10T11:40:40;100103.31;;;23.23
18713;BMP280;9485;49.386;8.674;2023-05-10T11:46:01;100111.16;;;23.06
18713;BMP280;9485;49.386;8.674;2023-05-10T11:51:24;100118.47;;;22.99
18713;BMP280;9485;49.386;8.674;2023-05-10T11:56:46;100115.53;;;23.07
18713;BMP280;9485;49.386;8.674;2023-05-10T12:02:07;100110.00;;;23.43
18713;BMP280;9485;49.386;8.674;2023-05-10T12:07:32;100099.41;;;23.62
18713;BMP280;9485;49.386;8.674;2023-05-10T12:12:53;100118.41;;;23.65
18713;BMP280;9485;49.386;8.674;2023-05-10T12:18:22;100115.00;;;23.42
18713;BMP280;9485;49.386;8.674;2023-05-10T12:23:50;100117.06;;;23.08
18713;BMP280;9485;49.386;8.674;2023-05-10T12:29:16;100122.69;;;22.81
18713;BMP280;9485;49.386;8.674;2023-05-10T12:34:38;100141.50;;;22.51
18713;BMP280;9485;49.386;8.674;2023-05-10T12:40:04;100134.34;;;22.27
18713;BMP280;9485;49.386;8.674;2023-05-10T12:45:26;100125.59;;;22.18
18713;BMP280;9485;49.386;8.674;2023-05-10T12:50:46;100129.81;;;22.17
18713;BMP280;9485;49.386;8.674;2023-05-10T12:56:08;100134.91;;;22.33
18713;BMP280;9485;49.386;8.674;2023-05-10T13:01:29;100127.34;;;22.69
18713;BMP280;9485;49.386;8.674;2023-05-10T13:06:51;100132.53;;;23.37
18713;BMP280;9485;49.386;8.674;2023-05-10T13:12:13;100127.75;;;24.16
18713;BMP280;9485;49.386;8.674;2023-05-10T13:17:34;100129.97;;;24.87
18713;BMP280;9485;49.386;8.674;2023-05-10T13:22:55;100127.81;;;25.23
18713;BMP280;9485;49.386;8.674;2023-05-10T13:28:17;100130.13;;;25.63
18713;BMP280;9485;49.386;8.674;2023-05-10T13:33:38;100134.88;;;25.96
18713;BMP280;9485;49.386;8.674;2023-05-10T13:38:59;100122.53;;;26.14
18713;BMP280;9485;49.386;8.674;2023-05-10T13:44:23;100109.94;;;25.91
18713;BMP280;9485;49.386;8.674;2023-05-10T13:49:43;100128.22;;;25.75
18713;BMP280;9485;49.386;8.674;2023-05-10T13:55:04;100126.94;;;25.59
18713;BMP280;9485;49.386;8.674;2023-05-10T14:00:27;100126.94;;;25.49
18713;BMP280;9485;49.386;8.674;2023-05-10T14:05:50;100117.34;;;25.37
18713;BMP280;9485;49.386;8.674;2023-05-10T14:11:10;100116.41;;;25.25
18713;BMP280;9485;49.386;8.674;2023-05-10T14:16:34;100096.56;;;24.94
18713;BMP280;9485;49.386;8.674;2023-05-10T14:21:55;100106.56;;;24.93
18713;BMP280;9485;49.386;8.674;2023-05-10T14:27:15;100082.50;;;24.81
18713;BMP280;9485;49.386;8.674;2023-05-10T14:32:37;100081.38;;;24.57
18713;BMP280;9485;49.386;8.674;2023-05-10T14:37:58;100093.47;;;24.46
18713;BMP280;9485;49.386;8.674;2023-05-10T14:43:19;100098.41;;;24.36
18713;BMP280;9485;49.386;8.674;2023-05-10T14:48:41;100091.06;;;24.26
18713;BMP280;9485;49.386;8.674;2023-05-10T14:54:02;100097.16;;;24.04
18713;BMP280;9485;49.386;8.674;2023-05-10T14:59:22;100090.34;;;23.82
18713;BMP280;9485;49.386;8.674;2023-05-10T15:04:45;100085.59;;;23.60
18713;BMP280;9485;49.386;8.674;2023-05-10T15:10:07;100095.34;;;23.48
18713;BMP280;9485;49.386;8.674;2023-05-10T15:15:28;100082.81;;;23.36
18713;BMP280;9485;49.386;8.674;2023-05-10T15:20:50;100079.09;;;23.02
18713;BMP280;9485;49.386;8.674;2023-05-10T15:26:11;100083.16;;;22.99
18713;BMP280;9485;49.386;8.674;2023-05-10T15:31:32;100089.22;;;22.86
18713;BMP280;9485;49.386;8.674;2023-05-10T15:36:56;100093.34;;;22.75
18713;BMP280;9485;49.386;8.674;2023-05-10T15:42:17;100088.97;;;22.74
18713;BMP280;9485;49.386;8.674;2023-05-10T15:47:38;100097.19;;;22.78
18713;BMP280;9485;49.386;8.674;2023-05-10T15:53:01;100096.22;;;22.75
18713;BMP280;9485;49.386;8.674;2023-05-10T15:58:22;100088.53;;;22.78
18713;BMP280;9485;49.386;8.674;2023-05-10T16:03:43;100089.72;;;22.75
18713;BMP280;9485;49.386;8.674;2023-05-10T16:09:06;100088.59;;;22.70
18713;BMP280;9485;49.386;8.674;2023-05-10T16:14:26;100088.81;;;22.65
18713;BMP280;9485;49.386;8.674;2023-05-10T16:19:47;100089.59;;;22.66
18713;BMP280;9485;49.386;8.674;2023-05-10T16:25:10;100084.25;;;22.62
18713;BMP280;9485;49.386;8.674;2023-05-10T16:30:30;100072.69;;;22.45
18713;BMP280;9485;49.386;8.674;2023-05-10T16:35:51;100070.69;;;22.23
18713;BMP280;9485;49.386;8.674;2023-05-10T16:41:13;100095.88;;;22.15
18713;BMP280;9485;49.386;8.674;2023-05-10T16:46:34;100092.50;;;22.02
18713;BMP280;9485;49.386;8.674;2023-05-10T16:51:54;100100.41;;;21.94
18713;BMP280;9485;49.386;8.674;2023-05-10T16:57:16;100101.59;;;21.84
18713;BMP280;9485;49.386;8.674;2023-05-10T17:02:37;100106.47;;;21.74
18713;BMP280;9485;49.386;8.674;2023-05-10T17:07:58;100109.75;;;21.63
18713;BMP280;9485;49.386;8.674;2023-05-10T17:13:20;100112.44;;;21.53
18713;BMP280;9485;49.386;8.674;2023-05-10T17:18:41;100123.19;;;21.45
18713;BMP280;9485;49.386;8.674;2023-05-10T17:24:04;100117.06;;;21.34
18713;BMP280;9485;49.386;8.674;2023-05-10T17:29:26;100131.66;;;21.28
18713;BMP280;9485;49.386;8.674;2023-05-10T17:34:47;100121.53;;;21.13
18713;BMP280;9485;49.386;8.674;2023-05-10T17:40:09;100117.91;;;20.90
18713;BMP280;9485;49.386;8.674;2023-05-10T17:45:31;100132.47;;;20.92
18713;BMP280;9485;49.386;8.674;2023-05-10T17:50:52;100134.94;;;20.80
18713;BMP280;9485;49.386;8.674;2023-05-10T17:56:13;100128.78;;;20.61
18713;BMP280;9485;49.386;8.674;2023-05-10T18:01:36;100135.63;;;20.43
18713;BMP280;9485;49.386;8.674;2023-05-10T18:06:56;100140.59;;;20.36
18713;BMP280;9485;49.386;8.674;2023-05-10T18:12:19;100138.69;;;20.23
18713;BMP280;9485;49.386;8.674;2023-05-10T18:17:42;100143.78;;;20.10
18713;BMP280;9485;49.386;8.674;2023-05-10T18:23:03;100142.59;;;19.98
18713;BMP280;9485;49.386;8.674;2023-05-10T18:28:24;100148.63;;;19.87
18713;BMP280;9485;49.386;8.674;2023-05-10T18:33:47;100146.13;;;19.76
18713;BMP280;9485;49.386;8.674;2023-05-10T18:39:08;100151.41;;;19.64
18713;BMP280;9485;49.386;8.674;2023-05-10T18:44:29;100148.09;;;19.53
18713;BMP280;9485;49.386;8.674;2023-05-10T18:49:51;100146.69;;;19.39
18713;BMP280;9485;49.386;8.674;2023-05-10T18:55:12;100151.41;;;19.29
18713;BMP280;9485;49.386;8.674;2023-05-10T19:00:32;100156.84;;;19.20
18713;BMP280;9485;49.386;8.674;2023-05-10T19:05:54;100157.16;;;19.09
18713;BMP280;9485;49.386;8.674;2023-05-10T19:11:15;100170.03;;;19.02
18713;BMP280;9485;49.386;8.674;2023-05-10T19:16:36;100174.63;;;18.98
18713;BMP280;9485;49.386;8.674;2023-05-10T19:21:58;100179.69;;;18.92
18713;BMP280;9485;49.386;8.674;2023-05-10T19:27:19;100193.94;;;18.84
18713;BMP280;9485;49.386;8.674;2023-05-10T19:32:40;100191.91;;;18.72
18713;BMP280;9485;49.386;8.674;2023-05-10T19:38:03;100190.66;;;18.60
18713;BMP280;9485;49.386;8.674;2023-05-10T19:43:24;100195.88;;;18.49
18713;BMP280;9485;49.386;8.674;2023-05-10T19:48:44;100203.06;;;18.42
18713;BMP280;9485;49.386;8.674;2023-05-10T19:54:06;100205.59;;;18.33
18713;BMP280;9485;49.386;8.674;2023-05-10T19:59:27;100213.88;;;18.23
18713;BMP280;9485;49.386;8.674;2023-05-10T20:04:47;100207.50;;;18.17
18713;BMP280;9485;49.386;8.674;2023-05-10T20:10:10;100218.28;;;18.11
18713;BMP280;9485;49.386;8.674;2023-05-10T20:15:31;100212.28;;;18.02
18713;BMP280;9485;49.386;8.674;2023-05-10T20:20:57;100216.09;;;18.05
18713;BMP280;9485;49.386;8.674;2023-05-10T20:26:19;100218.00;;;18.02
18713;BMP280;9485;49.386;8.674;2023-05-10T20:31:40;100224.38;;;17.95
18713;BMP280;9485;49.386;8.674;2023-05-10T20:37:01;100219.34;;;17.88
18713;BMP280;9485;49.386;8.674;2023-05-10T20:42:23;100220.97;;;17.84
18713;BMP280;9485;49.386;8.674;2023-05-10T20:47:44;100222.84;;;17.81
18713;BMP280;9485;49.386;8.674;2023-05-10T20:53:04;100218.03;;;17.76
18713;BMP280;9485;49.386;8.674;2023-05-10T20:58:26;100216.81;;;17.72
18713;BMP280;9485;49.386;8.674;2023-05-10T21:03:47;100219.03;;;17.66
18713;BMP280;9485;49.386;8.674;2023-05-10T21:09:08;100226.16;;;17.59
18713;BMP280;9485;49.386;8.674;2023-05-10T21:14:30;100228.13;;;17.51
18713;BMP280;9485;49.386;8.674;2023-05-10T21:19:50;100219.47;;;17.44
18713;BMP280;9485;49.386;8.674;2023-05-10T21:25:11;100219.34;;;17.36
18713;BMP280;9485;49.386;8.674;2023-05-10T21:30:33;100210.19;;;17.25
18713;BMP280;9485;49.386;8.674;2023-05-10T21:35:54;100213.69;;;17.18
18713;BMP280;9485;49.386;8.674;2023-05-10T21:41:15;100223.00;;;17.06
18713;BMP280;9485;49.386;8.674;2023-05-10T21:46:36;100217.16;;;16.98
18713;BMP280;9485;49.386;8.674;2023-05-10T21:51:57;100215.28;;;16.88
18713;BMP280;9485;49.386;8.674;2023-05-10T21:57:17;100218.00;;;16.80
18713;BMP280;9485;49.386;8.674;2023-05-10T22:02:41;100216.34;;;16.72
18713;BMP280;9485;49.386;8.674;2023-05-10T22:08:01;100209.50;;;16.62
18713;BMP280;9485;49.386;8.674;2023-05-10T22:13:22;100217.16;;;16.54
18713;BMP280;9485;49.386;8.674;2023-05-10T22:18:46;100220.06;;;16.49
18713;BMP280;9485;49.386;8.674;2023-05-10T22:24:06;100216.34;;;16.41
18713;BMP280;9485;49.386;8.674;2023-05-10T22:29:28;100212.09;;;16.29
18713;BMP280;9485;49.386;8.674;2023-05-10T22:34:50;100220.91;;;16.25
18713;BMP280;9485;49.386;8.674;2023-05-10T22:40:11;100215.94;;;16.13
18713;BMP280;9485;49.386;8.674;2023-05-10T22:45:32;100227.84;;;16.11
18713;BMP280;9485;49.386;8.674;2023-05-10T22:50:54;100222.72;;;16.10
18713;BMP280;9485;49.386;8.674;2023-05-10T22:56:15;100220.41;;;16.08
18713;BMP280;9485;49.386;8.674;2023-05-10T23:01:36;100231.00;;;16.08
18713;BMP280;9485;49.386;8.674;2023-05-10T23:06:58;100227.41;;;16.07
18713;BMP280;9485;49.386;8.674;2023-05-10T23:12:19;100229.47;;;16.07
18713;BMP280;9485;49.386;8.674;2023-05-10T23:17:39;100232.41;;;16.01
18713;BMP280;9485;49.386;8.674;2023-05-10T23:23:01;100244.25;;;16.05
18713;BMP280;9485;49.386;8.674;2023-05-10T23:28:22;100243.50;;;16.05
18713;BMP280;9485;49.386;8.674;2023-05-10T23:33:42;100244.88;;;15.98
18713;BMP280;9485;49.386;8.674;2023-05-10T23:39:04;100241.31;;;15.92
18713;BMP280;9485;49.386;8.674;2023-05-10T23:44:26;100242.38;;;15.89
18713;BMP280;9485;49.386;8.674;2023-05-10T23:49:48;100241.19;;;15.85
18713;BMP280;9485;49.386;8.674;2023-05-10T23:55:10;100240.16;;;15.82
